Time;durP1;ratioP1;P1;durP2;ratioP2;P2;SDS_P1;SDS_P2;PMS_P1;PMS_P2;Temp;Humidity;BMP_temperature;BMP_pressure;BME280_temperature;BME280_humidity;BME280_pressure;Samples;Min_cycle;Max_cycle;Signal;HPM_P1;HPM_P2
2021/05/08 00:01:59;;;;;;;6.05;4.25;;;;;;;3.96;79.24;100236.32;1588453;87;21234;-76
2021/05/08 00:04:25;;;;;;;8.33;4.00;;;;;;;3.96;79.30;100229.80;1586897;87;21182;-76
2021/05/08 00:06:51;;;;;;;8.93;4.75;;;;;;;3.95;79.35;100235.94;1620731;87;21202;-76
2021/05/08 00:09:17;;;;;;;9.70;5.37;;;;;;;3.95;79.53;100238.09;1619392;87;21807;-76
2021/05/08 00:11:43;;;;;;;7.12;5.10;;;;;;;3.92;79.63;100238.70;1620275;88;21175;-76
2021/05/08 00:14:09;;;;;;;6.97;4.80;;;;;;;3.90;79.57;100240.05;1620540;87;21124;-76
2021/05/08 00:16:36;;;;;;;7.55;4.72;;;;;;;3.90;79.61;100248.34;1620100;88;21807;-77
2021/05/08 00:19:02;;;;;;;7.45;4.72;;;;;;;3.90;79.68;100251.80;1620213;87;21132;-77
2021/05/08 00:21:28;;;;;;;7.90;5.08;;;;;;;3.91;79.60;100248.73;1619022;88;21676;-77
2021/05/08 00:23:54;;;;;;;5.50;4.40;;;;;;;3.91;79.61;100258.70;1619051;88;21303;-76
2021/05/08 00:26:21;;;;;;;9.00;4.62;;;;;;;3.90;79.72;100257.02;1619208;87;21263;-77
2021/05/08 00:28:48;;;;;;;7.72;5.00;;;;;;;3.88;79.62;100259.31;1644705;87;21249;-76
2021/05/08 00:31:15;;;;;;;7.60;4.37;;;;;;;3.85;79.72;100258.14;1645241;86;21164;-77
2021/05/08 00:33:41;;;;;;;8.80;4.42;;;;;;;3.84;79.72;100260.38;1641217;86;21160;-76
2021/05/08 00:36:07;;;;;;;9.70;5.72;;;;;;;3.82;79.82;100260.89;1620254;88;21100;-77
2021/05/08 00:38:33;;;;;;;5.90;5.03;;;;;;;3.81;80.01;100261.35;1620292;88;21140;-77
2021/05/08 00:40:59;;;;;;;6.75;4.95;;;;;;;3.79;80.00;100254.07;1637367;87;21734;-76
2021/05/08 00:43:25;;;;;;;8.23;5.20;;;;;;;3.75;79.90;100267.72;1646630;86;21124;-77
2021/05/08 00:45:51;;;;;;;6.90;5.00;;;;;;;3.71;80.15;100262.23;1627975;86;21136;-76
2021/05/08 00:48:18;;;;;;;7.25;4.83;;;;;;;3.70;80.19;100263.16;1620177;88;21294;-76
2021/05/08 00:50:44;;;;;;;8.78;5.85;;;;;;;3.68;80.23;100264.97;1620322;88;21191;-76
2021/05/08 00:53:11;;;;;;;7.95;5.45;;;;;;;3.67;80.47;100267.20;1637330;87;21086;-77
2021/05/08 00:55:38;;;;;;;7.45;5.10;;;;;;;3.64;80.57;100264.73;1633003;86;21169;-77
2021/05/08 00:58:08;;;;;;;6.58;4.67;;;;;;;3.63;80.63;100267.42;1620035;87;21566;-76
2021/05/08 01:00:36;;;;;;;8.85;4.97;;;;;;;3.61;80.56;100258.34;1620351;88;21148;-76
2021/05/08 01:03:02;;;;;;;7.75;5.65;;;;;;;3.61;80.62;100264.02;1620154;88;21204;-76
2021/05/08 01:05:32;;;;;;;7.72;5.60;;;;;;;3.57;80.73;100261.17;1621863;87;21176;-76
2021/05/08 01:07:57;;;;;;;9.40;5.90;;;;;;;3.55;80.75;100265.13;1636305;87;21262;-76
2021/05/08 01:10:23;;;;;;;8.75;5.47;;;;;;;3.54;80.78;100264.75;1634098;87;21659;-76
2021/05/08 01:12:50;;;;;;;8.58;6.50;;;;;;;3.52;80.83;100265.27;1620277;88;21205;-76
2021/05/08 01:15:16;;;;;;;9.93;5.85;;;;;;;3.50;80.89;100265.81;1620056;88;21476;-76
2021/05/08 01:17:43;;;;;;;7.65;5.53;;;;;;;3.51;80.95;100263.59;1620232;87;21128;-76
2021/05/08 01:20:12;;;;;;;10.80;6.50;;;;;;;3.49;80.90;100268.05;1620235;88;21567;-76
2021/05/08 01:22:39;;;;;;;9.78;6.17;;;;;;;3.48;80.89;100269.78;1620122;87;21189;-76
2021/05/08 01:25:11;;;;;;;10.50;5.28;;;;;;;3.48;81.05;100264.56;1620444;87;21180;-76
2021/05/08 01:27:50;;;;;;;9.28;6.25;;;;;;;3.46;81.13;100272.93;1619913;88;21745;-75
2021/05/08 01:30:21;;;;;;;8.75;6.08;;;;;;;3.47;80.92;100275.92;1643905;87;21133;-75
2021/05/08 01:32:47;;;;;;;8.78;5.53;;;;;;;3.46;81.06;100279.45;1646372;87;21163;-76
2021/05/08 01:35:14;;;;;;;9.40;6.83;;;;;;;3.44;81.09;100273.91;1636696;87;21207;-75
2021/05/08 01:37:41;;;;;;;11.33;7.42;;;;;;;3.42;81.05;100279.20;1619130;87;21128;-75
2021/05/08 01:40:12;;;;;;;9.33;7.80;;;;;;;3.40;81.02;100279.72;1619297;88;21290;-78
2021/05/08 01:42:44;;;;;;;11.20;7.35;;;;;;;3.39;81.13;100280.64;1620205;88;21578;-76
2021/05/08 01:45:17;;;;;;;11.00;7.27;;;;;;;3.37;81.13;100286.83;1620186;88;21139;-76
2021/05/08 01:47:44;;;;;;;9.75;6.87;;;;;;;3.32;81.17;100283.56;1620270;87;21669;-76
2021/05/08 01:50:15;;;;;;;10.50;6.53;;;;;;;3.34;81.32;100293.48;1620186;87;21159;-76
2021/05/08 01:52:41;;;;;;;10.03;6.55;;;;;;;3.32;81.33;100300.05;1620266;87;21124;-76
2021/05/08 01:55:12;;;;;;;8.83;6.72;;;;;;;3.29;81.26;100299.75;1623182;87;21516;-76
2021/05/08 01:57:51;;;;;;;7.53;6.03;;;;;;;3.27;81.34;100298.95;1625639;87;21144;-76
2021/05/08 02:00:34;;;;;;;12.43;6.15;;;;;;;3.27;81.35;100302.03;1634862;87;21128;-76
2021/05/08 02:03:01;;;;;;;8.03;5.67;;;;;;;3.26;81.42;100300.34;1623920;87;21139;-76
2021/05/08 02:05:31;;;;;;;12.05;6.25;;;;;;;3.23;81.32;100306.99;1620375;88;21309;-76
2021/05/08 02:08:01;;;;;;;10.25;6.47;;;;;;;3.22;81.39;100301.36;1620042;88;21686;-76
2021/05/08 02:10:25;;;;;;;7.20;5.42;;;;;;;3.18;81.40;100307.63;1620351;88;21180;-76
2021/05/08 02:12:51;;;;;;;7.58;5.50;;;;;;;3.17;81.32;100305.95;1620394;88;21500;-76
2021/05/08 02:15:19;;;;;;;6.95;5.03;;;;;;;3.16;81.42;100306.41;1620306;88;21320;-76
2021/05/08 02:17:46;;;;;;;7.78;5.12;;;;;;;3.16;81.34;100301.63;1620386;88;21156;-76
2021/05/08 02:20:23;;;;;;;10.20;5.45;;;;;;;3.14;81.56;100311.28;1616816;88;21717;-76
2021/05/08 02:22:50;;;;;;;8.48;5.58;;;;;;;3.12;81.47;100311.34;1589717;89;21160;-76
2021/05/08 02:25:16;;;;;;;8.93;6.20;;;;;;;3.11;81.45;100312.25;1618256;87;21140;-76
2021/05/08 02:27:42;;;;;;;7.87;5.75;;;;;;;3.10;81.44;100318.39;1618843;88;21160;-76
2021/05/08 02:30:12;;;;;;;8.68;5.30;;;;;;;3.11;81.42;100322.69;1636942;87;21310;-76
2021/05/08 02:32:39;;;;;;;9.85;6.17;;;;;;;3.11;81.51;100323.15;1620315;87;21239;-76
2021/05/08 02:35:09;;;;;;;8.48;5.78;;;;;;;3.10;81.50;100322.30;1619708;87;21608;-76
2021/05/08 02:37:36;;;;;;;7.90;5.62;;;;;;;3.10;81.69;100323.61;1620011;88;21290;-75
2021/05/08 02:40:10;;;;;;;7.80;5.20;;;;;;;3.09;81.55;100321.89;1620449;88;21586;-76
2021/05/08 02:42:37;;;;;;;8.75;5.80;;;;;;;3.09;81.60;100321.89;1620288;87;21172;-78
2021/05/08 02:45:06;;;;;;;7.33;6.12;;;;;;;3.10;81.56;100328.82;1620163;88;21673;-78
2021/05/08 02:47:32;;;;;;;6.92;5.33;;;;;;;3.10;81.59;100332.73;1619245;87;21117;-78
2021/05/08 02:49:58;;;;;;;7.22;5.17;;;;;;;3.10;81.75;100330.12;1618849;88;21178;-78
2021/05/08 02:52:24;;;;;;;9.13;5.83;;;;;;;3.12;81.76;100333.50;1618980;88;21120;-78
2021/05/08 02:54:50;;;;;;;5.95;4.87;;;;;;;3.12;81.71;100332.20;1620818;87;21132;-78
2021/05/08 02:57:16;;;;;;;9.83;5.30;;;;;;;3.10;81.69;100332.73;1620331;88;21226;-76
2021/05/08 02:59:43;;;;;;;7.75;5.58;;;;;;;3.10;81.71;100337.95;1620410;88;21163;-76
2021/05/08 03:02:10;;;;;;;10.58;6.90;;;;;;;3.09;81.76;100328.87;1620003;88;21713;-76
2021/05/08 03:04:36;;;;;;;8.28;6.37;;;;;;;3.09;81.75;100331.02;1620496;88;21685;-76
2021/05/08 03:07:03;;;;;;;6.40;5.15;;;;;;;3.07;81.63;100328.95;1620057;88;21218;-76
2021/05/08 03:09:31;;;;;;;7.40;4.97;;;;;;;3.09;81.64;100331.48;1620297;88;21315;-76
2021/05/08 03:11:59;;;;;;;8.80;5.35;;;;;;;3.10;81.65;100334.50;1620118;87;21191;-76
2021/05/08 03:14:26;;;;;;;6.95;5.03;;;;;;;3.10;81.68;100339.72;1602704;88;21177;-76
2021/05/08 03:16:52;;;;;;;8.90;6.42;;;;;;;3.10;81.85;100337.11;1636043;87;21340;-76
2021/05/08 03:19:19;;;;;;;7.72;5.37;;;;;;;3.10;81.78;100337.95;1644973;87;21180;-76
2021/05/08 03:21:45;;;;;;;9.33;6.30;;;;;;;3.11;81.88;100346.61;1620543;87;21136;-76
2021/05/08 03:24:11;;;;;;;6.50;4.70;;;;;;;3.12;81.82;100340.02;1620225;87;21282;-76
2021/05/08 03:26:37;;;;;;;9.70;6.75;;;;;;;3.13;81.83;100340.43;1619848;88;21161;-76
2021/05/08 03:29:04;;;;;;;9.38;7.10;;;;;;;3.15;81.85;100352.09;1630781;87;21125;-76
2021/05/08 03:31:31;;;;;;;7.60;5.40;;;;;;;3.14;81.92;100351.70;1646438;86;21121;-76
2021/05/08 03:33:58;;;;;;;9.15;6.05;;;;;;;3.17;81.96;100349.81;1645210;86;21167;-76
2021/05/08 03:36:24;;;;;;;9.48;5.90;;;;;;;3.19;81.89;100353.22;1638774;86;21575;-76
2021/05/08 03:38:50;;;;;;;7.47;4.95;;;;;;;3.23;82.00;100357.84;1643737;86;21101;-76
2021/05/08 03:41:16;;;;;;;9.38;5.83;;;;;;;3.24;81.98;100361.67;1620384;88;21310;-76
2021/05/08 03:43:42;;;;;;;7.05;5.58;;;;;;;3.27;82.01;100360.25;1620119;88;21302;-76
2021/05/08 03:46:07;;;;;;;9.25;5.25;;;;;;;3.30;82.08;100359.28;1620448;88;21306;-76
2021/05/08 03:48:33;;;;;;;10.38;5.35;;;;;;;3.33;82.07;100366.14;1619954;88;21309;-76
2021/05/08 03:50:59;;;;;;;7.75;5.08;;;;;;;3.37;82.04;100363.78;1620360;88;21290;-76
2021/05/08 03:53:26;;;;;;;7.65;4.95;;;;;;;3.40;82.08;100366.27;1619964;87;21179;-76
2021/05/08 03:55:53;;;;;;;9.15;6.53;;;;;;;3.43;82.09;100366.14;1620299;87;21296;-76
2021/05/08 03:58:23;;;;;;;9.08;5.15;;;;;;;3.46;82.03;100366.01;1620250;87;21179;-76
2021/05/08 04:00:48;;;;;;;8.70;4.90;;;;;;;3.50;82.12;100367.56;1619819;88;21175;-76
2021/05/08 04:03:14;;;;;;;6.90;4.75;;;;;;;3.53;82.10;100372.66;1620286;88;21172;-76
2021/05/08 04:05:40;;;;;;;7.50;4.70;;;;;;;3.55;82.02;100371.27;1620078;88;21156;-76
2021/05/08 04:08:06;;;;;;;6.78;4.75;;;;;;;3.58;82.00;100368.53;1620211;88;21218;-76
2021/05/08 04:10:32;;;;;;;8.65;5.72;;;;;;;3.60;81.93;100372.78;1620240;87;21825;-76
2021/05/08 04:12:58;;;;;;;6.75;4.65;;;;;;;3.63;81.98;100380.48;1620132;88;21313;-75
2021/05/08 04:15:24;;;;;;;6.78;4.67;;;;;;;3.64;81.85;100380.02;1623974;87;21621;-75
2021/05/08 04:17:50;;;;;;;6.03;4.75;;;;;;;3.65;81.82;100381.27;1628907;87;21188;-75
2021/05/08 04:20:17;;;;;;;8.45;5.53;;;;;;;3.69;81.85;100386.74;1620405;88;22233;-75
2021/05/08 04:22:43;;;;;;;7.33;4.75;;;;;;;3.71;81.98;100387.50;1619821;87;21089;-75
2021/05/08 04:25:09;;;;;;;8.78;4.22;;;;;;;3.75;81.95;100387.78;1621005;87;21258;-75
2021/05/08 04:27:35;;;;;;;19.48;4.42;;;;;;;3.80;81.96;100393.25;1619375;87;21160;-76
2021/05/08 04:30:02;;;;;;;6.47;4.85;;;;;;;3.84;82.00;100397.42;1620243;87;21204;-76
2021/05/08 04:32:28;;;;;;;5.25;4.40;;;;;;;3.87;81.89;100392.91;1620176;88;21297;-76
2021/05/08 04:34:53;;;;;;;7.72;4.50;;;;;;;3.93;81.90;100393.11;1620166;88;21159;-75
2021/05/08 04:37:19;;;;;;;5.83;5.03;;;;;;;3.94;81.85;100394.33;1620320;87;21307;-76
2021/05/08 04:39:45;;;;;;;6.75;4.53;;;;;;;3.98;81.79;100398.95;1620278;87;21684;-75
2021/05/08 04:42:11;;;;;;;7.22;4.17;;;;;;;4.01;81.70;100404.05;1619985;88;21282;-76
2021/05/08 04:44:37;;;;;;;5.85;4.35;;;;;;;4.04;81.54;100402.61;1620546;88;21185;-76
2021/05/08 04:47:04;;;;;;;6.53;4.15;;;;;;;4.05;81.52;100403.02;1619958;88;21615;-76
2021/05/08 04:49:30;;;;;;;6.03;4.05;;;;;;;4.06;81.47;100399.48;1620388;88;21310;-76
2021/05/08 04:51:56;;;;;;;6.17;4.83;;;;;;;4.07;81.36;100408.16;1620098;87;21634;-76
2021/05/08 04:54:23;;;;;;;5.75;4.70;;;;;;;4.10;81.48;100410.64;1633022;87;21125;-75
2021/05/08 04:56:50;;;;;;;6.28;4.53;;;;;;;4.11;81.45;100411.86;1646632;86;21157;-75
2021/05/08 04:59:16;;;;;;;5.65;4.45;;;;;;;4.14;81.53;100414.80;1634530;86;21648;-76
2021/05/08 05:01:42;;;;;;;6.80;4.72;;;;;;;4.17;81.53;100410.28;1620116;88;21194;-75
2021/05/08 05:04:08;;;;;;;5.15;4.33;;;;;;;4.21;81.53;100407.95;1620103;88;21652;-75
2021/05/08 05:06:34;;;;;;;6.83;5.20;;;;;;;4.27;81.64;100419.02;1620270;87;21634;-76
2021/05/08 05:09:00;;;;;;;8.85;5.33;;;;;;;4.33;81.72;100414.83;1620391;87;21297;-75
2021/05/08 05:11:26;;;;;;;7.95;5.00;;;;;;;4.37;81.48;100415.91;1620095;88;21191;-75
2021/05/08 05:13:52;;;;;;;8.28;5.25;;;;;;;4.42;81.58;100415.27;1619704;87;21231;-75
2021/05/08 05:16:18;;;;;;;6.95;4.90;;;;;;;4.49;81.52;100414.98;1625334;87;21187;-75
2021/05/08 05:18:44;;;;;;;7.05;5.40;;;;;;;4.57;81.44;100418.08;1620272;88;21712;-75
2021/05/08 05:21:10;;;;;;;6.83;4.53;;;;;;;4.63;81.32;100422.56;1620483;87;21136;-75
2021/05/08 05:23:36;;;;;;;10.20;6.22;;;;;;;4.71;81.28;100422.22;1620051;87;21476;-75
2021/05/08 05:26:03;;;;;;;10.50;5.05;;;;;;;4.78;81.08;100426.23;1620524;87;21262;-75
2021/05/08 05:28:30;;;;;;;9.30;4.97;;;;;;;4.88;80.92;100427.96;1622271;87;21145;-75
2021/05/08 05:30:58;;;;;;;7.17;5.28;;;;;;;4.98;80.65;100425.76;1620455;88;21210;-75
2021/05/08 05:33:24;;;;;;;8.65;4.65;;;;;;;5.07;80.59;100430.55;1620263;88;21315;-75
2021/05/08 05:35:57;;;;;;;6.53;5.25;;;;;;;5.17;80.42;100430.49;1620261;88;21176;-75
2021/05/08 05:38:25;;;;;;;8.08;5.17;;;;;;;5.26;79.87;100436.56;1619507;88;21625;-75
2021/05/08 05:40:54;;;;;;;7.10;4.92;;;;;;;5.36;79.81;100436.52;1604448;89;21552;-76
2021/05/08 05:43:21;;;;;;;6.78;5.05;;;;;;;5.45;79.60;100441.75;1610612;89;21164;-76
2021/05/08 05:45:48;;;;;;;5.55;4.35;;;;;;;5.54;79.33;100446.53;1616203;88;21643;-76
2021/05/08 05:48:14;;;;;;;7.53;4.35;;;;;;;5.63;78.97;100443.46;1620417;88;21687;-76
2021/05/08 05:50:42;;;;;;;8.33;4.37;;;;;;;5.71;78.75;100454.84;1620432;88;21176;-76
2021/05/08 05:53:09;;;;;;;5.55;4.17;;;;;;;5.79;78.19;100454.45;1620642;87;21340;-76
2021/05/08 05:55:35;;;;;;;7.30;4.50;;;;;;;5.86;78.17;100458.47;1620492;87;21194;-76
2021/05/08 05:58:01;;;;;;;6.65;4.67;;;;;;;5.92;78.04;100455.52;1626278;87;21266;-76
2021/05/08 06:00:28;;;;;;;8.33;5.10;;;;;;;5.99;77.91;100447.78;1633960;86;21201;-75
2021/05/08 06:02:54;;;;;;;5.67;4.15;;;;;;;6.07;77.61;100452.62;1621670;87;21166;-74
2021/05/08 06:05:20;;;;;;;7.12;4.05;;;;;;;6.16;77.34;100455.23;1621289;87;21104;-76
2021/05/08 06:07:46;;;;;;;6.92;4.05;;;;;;;6.26;77.27;100459.06;1620286;88;21324;-76
2021/05/08 06:10:15;;;;;;;6.20;3.98;;;;;;;6.33;76.83;100454.72;1619880;87;21171;-76
2021/05/08 06:12:41;;;;;;;5.25;3.52;;;;;;;6.39;76.68;100459.27;1620344;87;21622;-76
2021/05/08 06:15:10;;;;;;;5.95;4.35;;;;;;;6.45;75.68;100461.53;1620264;88;21241;-75
2021/05/08 06:17:37;;;;;;;7.87;4.58;;;;;;;6.52;75.83;100455.91;1620248;87;21535;-76
2021/05/08 06:20:05;;;;;;;5.20;4.55;;;;;;;6.60;76.59;100456.79;1620183;88;21164;-77
2021/05/08 06:22:32;;;;;;;4.33;3.92;;;;;;;6.68;76.21;100457.23;1620086;87;21593;-76
2021/05/08 06:24:57;;;;;;;6.90;4.55;;;;;;;6.74;76.03;100459.97;1620512;87;21334;-76
2021/05/08 06:27:23;;;;;;;7.30;4.00;;;;;;;6.80;74.82;100462.27;1624022;87;21626;-77
2021/05/08 06:29:50;;;;;;;5.55;4.37;;;;;;;6.86;75.52;100461.93;1645214;87;21717;-76
2021/05/08 06:32:16;;;;;;;6.00;4.37;;;;;;;6.90;74.84;100460.82;1627870;86;21210;-76
2021/05/08 06:34:42;;;;;;;9.23;4.72;;;;;;;6.95;75.05;100467.14;1620374;87;21108;-76
2021/05/08 06:37:08;;;;;;;6.72;3.47;;;;;;;7.00;74.60;100467.25;1620312;88;21163;-76
2021/05/08 06:39:34;;;;;;;7.35;3.70;;;;;;;7.07;74.93;100472.16;1620173;88;21146;-76
2021/05/08 06:42:00;;;;;;;5.20;4.05;;;;;;;7.12;75.22;100464.89;1620595;87;21144;-76
2021/05/08 06:44:26;;;;;;;5.87;3.65;;;;;;;7.18;74.73;100465.86;1620191;88;21286;-76
2021/05/08 06:46:53;;;;;;;4.62;3.67;;;;;;;7.24;74.94;100466.36;1620137;88;21168;-76
2021/05/08 06:49:19;;;;;;;5.42;4.00;;;;;;;7.32;75.21;100472.48;1620436;87;21200;-76
2021/05/08 06:51:46;;;;;;;6.60;4.03;;;;;;;7.41;74.69;100480.31;1619793;88;21289;-76
2021/05/08 06:54:12;;;;;;;5.95;3.98;;;;;;;7.46;73.92;100473.84;1621518;87;21567;-76
2021/05/08 06:56:38;;;;;;;6.53;3.37;;;;;;;7.54;74.53;100472.59;1629639;87;21138;-76
2021/05/08 06:59:04;;;;;;;5.50;3.77;;;;;;;7.62;74.68;100472.97;1644237;87;21717;-76
2021/05/08 07:01:30;;;;;;;5.20;3.30;;;;;;;7.65;73.92;100460.98;1622595;87;21191;-76
2021/05/08 07:03:56;;;;;;;7.22;4.45;;;;;;;7.82;73.70;100470.02;1621312;87;21177;-76
2021/05/08 07:06:26;;;;;;;6.45;4.00;;;;;;;7.79;73.17;100461.00;1625242;87;21150;-76
2021/05/08 07:08:53;;;;;;;5.55;4.15;;;;;;;7.79;73.17;100461.00;1622636;87;21174;-76
2021/05/08 07:11:25;;;;;;;5.42;4.22;;;;;;;7.99;74.18;100473.84;1621836;86;21615;-76
2021/05/08 07:13:51;;;;;;;9.05;4.40;;;;;;;8.11;73.26;100480.13;1619447;88;21866;-76
2021/05/08 07:16:16;;;;;;;5.08;3.85;;;;;;;8.21;73.79;100471.22;1619639;87;21151;-76
2021/05/08 07:18:42;;;;;;;5.78;3.80;;;;;;;8.30;73.79;100467.20;1619590;87;21187;-76
2021/05/08 07:21:08;;;;;;;6.22;3.92;;;;;;;8.40;73.75;100473.14;1619642;87;21143;-76
2021/05/08 07:23:34;;;;;;;5.12;3.72;;;;;;;8.54;72.24;100468.81;1619918;87;21629;-76
2021/05/08 07:26:00;;;;;;;6.15;3.70;;;;;;;8.62;71.58;100473.11;1628612;87;21332;-76
2021/05/08 07:28:26;;;;;;;5.65;3.52;;;;;;;8.65;71.61;100463.28;1644761;87;21136;-76
2021/05/08 07:30:55;;;;;;;5.00;3.45;;;;;;;8.71;72.06;100465.13;1628453;87;21120;-76
2021/05/08 07:33:23;;;;;;;5.30;3.22;;;;;;;8.78;72.56;100459.38;1619200;88;21297;-76
2021/05/08 07:35:50;;;;;;;5.83;3.75;;;;;;;8.85;71.65;100462.47;1635074;87;21154;-76
2021/05/08 07:38:18;;;;;;;4.95;3.40;;;;;;;8.93;71.09;100467.63;1619141;88;21199;-76
2021/05/08 07:40:49;;;;;;;11.57;3.87;;;;;;;8.99;71.24;100469.04;1625196;87;21270;-76
2021/05/08 07:43:13;;;;;;;5.92;3.70;;;;;;;9.06;70.78;100465.55;1630939;87;21698;-76
2021/05/08 07:45:39;;;;;;;5.72;3.80;;;;;;;9.13;70.80;100477.36;1627393;86;21166;-76
2021/05/08 07:48:05;;;;;;;4.62;3.55;;;;;;;9.15;70.16;100471.54;1619545;88;21325;-76
2021/05/08 07:50:32;;;;;;;4.10;2.87;;;;;;;9.19;69.24;100467.76;1619511;88;21155;-76
2021/05/08 07:52:58;;;;;;;3.87;2.95;;;;;;;9.20;68.72;100481.28;1619865;88;21166;-76
2021/05/08 07:55:25;;;;;;;6.03;3.12;;;;;;;9.19;68.92;100487.98;1619587;88;21668;-76
2021/05/08 07:57:51;;;;;;;6.50;3.30;;;;;;;9.20;68.87;100482.59;1619609;87;21317;-76
2021/05/08 08:00:21;;;;;;;6.20;3.55;;;;;;;9.31;68.92;100484.53;1620122;87;21200;-76
2021/05/08 08:02:48;;;;;;;4.95;2.72;;;;;;;9.45;68.13;100478.39;1619868;87;21171;-76
2021/05/08 08:05:15;;;;;;;6.00;3.17;;;;;;;9.58;68.31;100481.91;1619923;87;21729;-76
2021/05/08 08:07:41;;;;;;;5.10;3.30;;;;;;;9.70;67.59;100477.60;1619546;87;21202;-77
2021/05/08 08:10:09;;;;;;;5.10;3.00;;;;;;;9.82;68.06;100484.22;1643418;87;21725;-76
2021/05/08 08:12:37;;;;;;;7.15;3.80;;;;;;;9.91;66.24;100488.52;1645905;86;21176;-76
2021/05/08 08:15:03;;;;;;;4.50;3.87;;;;;;;9.89;65.20;100487.77;1646279;86;21123;-75
2021/05/08 08:17:31;;;;;;;6.08;3.58;;;;;;;9.84;65.78;100499.47;1646195;87;21113;-76
2021/05/08 08:19:57;;;;;;;4.40;3.22;;;;;;;9.77;64.83;100498.64;1634232;86;21156;-76
2021/05/08 08:22:23;;;;;;;6.62;3.00;;;;;;;9.73;64.71;100492.73;1619886;88;21325;-75
2021/05/08 08:24:49;;;;;;;7.95;3.95;;;;;;;9.76;64.92;100503.07;1619699;88;21182;-76
2021/05/08 08:27:15;;;;;;;5.62;3.85;;;;;;;9.89;65.80;100504.42;1619555;88;21282;-75
2021/05/08 08:29:41;;;;;;;6.80;4.47;;;;;;;10.07;64.71;100501.04;1623183;87;21139;-79
2021/05/08 08:32:08;;;;;;;11.55;7.08;;;;;;;10.25;65.15;100491.86;1625732;86;21163;-79
2021/05/08 08:34:34;;;;;;;7.80;4.78;;;;;;;10.29;64.51;100506.55;1617381;88;21605;-78
2021/05/08 08:37:01;;;;;;;7.92;3.35;;;;;;;10.25;63.55;100518.71;1618752;88;21162;-79
2021/05/08 08:39:28;;;;;;;4.65;2.80;;;;;;;10.18;62.51;100511.69;1618157;87;21164;-79
2021/05/08 08:41:55;;;;;;;6.65;4.28;;;;;;;10.16;63.20;100507.46;1618864;88;22504;-79
2021/05/08 08:44:21;;;;;;;7.60;3.30;;;;;;;10.20;63.02;100507.17;1618505;88;21156;-78
2021/05/08 08:46:47;;;;;;;4.92;2.92;;;;;;;10.31;62.97;100502.50;1634172;87;21166;-79
2021/05/08 08:49:15;;;;;;;9.88;4.33;;;;;;;10.40;60.82;100499.69;1619358;87;21657;-78
2021/05/08 08:51:43;;;;;;;5.58;3.40;;;;;;;10.50;59.72;100508.68;1618385;88;21587;-78
2021/05/08 08:54:12;;;;;;;5.70;3.17;;;;;;;10.57;60.04;100498.06;1619119;88;21523;-79
2021/05/08 08:56:41;;;;;;;3.83;3.17;;;;;;;10.65;61.48;100495.72;1618630;88;21160;-78
2021/05/08 08:59:18;;;;;;;4.45;3.47;;;;;;;10.81;60.48;100503.41;1617782;89;21808;-78
2021/05/08 09:01:43;;;;;;;4.35;3.40;;;;;;;10.92;59.41;100509.23;1617743;89;21306;-76
2021/05/08 09:04:14;;;;;;;5.87;3.40;;;;;;;11.02;60.22;100487.81;1618825;87;21286;-77
2021/05/08 09:06:44;;;;;;;4.78;3.40;;;;;;;11.16;61.13;100499.57;1618172;88;21206;-76
2021/05/08 09:09:11;;;;;;;4.33;3.27;;;;;;;11.25;59.34;100495.40;1628912;87;22393;-76
2021/05/08 09:11:54;;;;;;;5.22;3.37;;;;;;;11.17;59.68;100489.84;1644034;87;21721;-76
2021/05/08 09:14:26;;;;;;;4.62;2.40;;;;;;;11.22;59.72;100494.30;1594498;90;21140;-76
2021/05/08 09:17:15;;;;;;;3.40;2.65;;;;;;;11.28;58.12;100498.66;1594092;90;21191;-76
2021/05/08 09:20:03;;;;;;;4.70;2.58;;;;;;;11.27;58.86;100494.34;1601510;87;21128;-75
2021/05/08 09:22:39;;;;;;;5.33;3.45;;;;;;;11.35;58.51;100497.77;1644345;87;21599;-76
2021/05/08 09:25:14;;;;;;;5.65;3.27;;;;;;;11.56;58.43;100503.27;1644375;87;21148;-78
2021/05/08 09:27:51;;;;;;;3.83;2.80;;;;;;;11.72;57.64;100505.13;1644494;86;21197;-76
2021/05/08 09:30:26;;;;;;;5.78;3.85;;;;;;;11.83;56.30;100492.91;1645690;87;21121;-76
2021/05/08 09:32:59;;;;;;;4.33;3.30;;;;;;;11.92;53.99;100501.51;1618575;89;21512;-75
2021/05/08 09:35:35;;;;;;;4.40;3.02;;;;;;;11.98;56.38;100493.12;1617952;89;21298;-75
2021/05/08 09:38:11;;;;;;;7.67;3.30;;;;;;;12.09;56.02;100492.30;1636606;87;21171;-75
2021/05/08 09:40:46;;;;;;;4.47;3.33;;;;;;;12.16;56.69;100490.38;1626207;87;21164;-75
2021/05/08 09:43:18;;;;;;;4.45;3.30;;;;;;;12.29;54.65;100492.92;1618520;87;21104;-76
2021/05/08 09:45:47;;;;;;;4.45;3.12;;;;;;;12.34;55.93;100484.61;1618750;87;21139;-75
2021/05/08 09:48:28;;;;;;;4.70;3.08;;;;;;;12.48;56.83;100486.22;1618155;88;21214;-75
2021/05/08 09:50:58;;;;;;;3.77;3.33;;;;;;;12.65;55.75;100493.67;1618784;88;21072;-75
2021/05/08 09:53:32;;;;;;;5.92;3.12;;;;;;;12.77;53.51;100484.77;1613505;88;21124;-75
2021/05/08 09:55:59;;;;;;;4.60;3.05;;;;;;;12.87;53.43;100480.91;1619928;88;21143;-76
2021/05/08 09:58:27;;;;;;;5.80;3.95;;;;;;;12.99;52.52;100478.58;1619346;88;21180;-76
2021/05/08 10:00:54;;;;;;;5.42;3.70;;;;;;;13.06;51.94;100495.70;1642220;87;21144;-74
2021/05/08 10:03:21;;;;;;;5.83;3.98;;;;;;;12.96;52.03;100493.88;1644206;87;21168;-75
2021/05/08 10:06:05;;;;;;;4.85;3.60;;;;;;;12.94;50.73;100479.94;1644203;87;21168;-74
2021/05/08 10:08:31;;;;;;;5.15;4.10;;;;;;;12.85;50.22;100493.42;1644458;86;21180;-75
2021/05/08 10:10:58;;;;;;;4.03;3.62;;;;;;;12.81;52.23;100490.17;1643773;87;21152;-75
2021/05/08 10:13:26;;;;;;;5.55;3.98;;;;;;;12.90;52.55;100480.67;1640278;86;21097;-75
2021/05/08 10:15:52;;;;;;;4.70;3.77;;;;;;;12.98;51.67;100487.50;1618062;88;21160;-75
2021/05/08 10:18:18;;;;;;;5.28;4.28;;;;;;;12.85;50.37;100476.20;1618419;88;21600;-76
2021/05/08 10:20:44;;;;;;;7.12;4.45;;;;;;;12.71;49.23;100480.44;1618956;87;21333;-75
2021/05/08 10:23:12;;;;;;;7.35;5.03;;;;;;;12.60;50.70;100477.30;1618080;88;21516;-75
2021/05/08 10:25:41;;;;;;;14.33;7.60;;;;;;;12.67;51.64;100475.39;1618577;88;21152;-79
2021/05/08 10:28:08;;;;;;;9.08;4.75;;;;;;;12.65;47.88;100481.76;1619692;87;21155;-78
2021/05/08 10:30:47;;;;;;;7.97;4.22;;;;;;;12.48;48.51;100469.02;1603008;88;21207;-78
2021/05/08 10:33:14;;;;;;;6.30;5.50;;;;;;;12.55;50.01;100466.23;1618125;88;21315;-78
2021/05/08 10:35:51;;;;;;;10.38;6.03;;;;;;;12.66;50.48;100459.61;1619687;87;21166;-79
2021/05/08 10:38:27;;;;;;;20.65;12.15;;;;;;;12.66;49.76;100469.70;1615376;87;21178;-79
2021/05/08 10:41:04;;;;;;;7.37;5.10;;;;;;;12.55;48.96;100464.92;1618893;88;21131;-78
2021/05/08 10:43:51;;;;;;;11.38;6.58;;;;;;;12.42;49.31;100469.84;1592939;90;21143;-79
2021/05/08 10:46:20;;;;;;;9.48;8.58;;;;;;;12.28;48.92;100463.95;1592521;90;21597;-77
2021/05/08 10:49:29;;;;;;;6.50;5.28;;;;;;;12.16;50.38;100459.95;1592845;89;21155;-76
2021/05/08 10:51:58;;;;;;;6.03;4.78;;;;;;;12.34;49.56;100461.67;1593702;90;21198;-77
2021/05/08 10:54:44;;;;;;;6.25;4.72;;;;;;;12.64;48.50;100459.74;1593714;90;21166;-77
2021/05/08 10:57:20;;;;;;;5.35;4.65;;;;;;;12.83;49.76;100459.58;1613803;88;21142;-77
2021/05/08 11:00:10;;;;;;;5.40;4.33;;;;;;;13.02;49.84;100461.13;1601490;88;22605;-77
2021/05/08 11:02:48;;;;;;;5.53;4.25;;;;;;;13.20;48.97;100462.78;1608557;88;21175;-77
2021/05/08 11:05:24;;;;;;;5.28;4.33;;;;;;;13.34;47.77;100463.00;1589719;88;21130;-78
2021/05/08 11:07:51;;;;;;;4.75;4.10;;;;;;;13.49;48.86;100447.17;1593168;88;21286;-77
2021/05/08 11:10:37;;;;;;;5.87;4.62;;;;;;;13.75;48.82;100450.77;1593196;89;21819;-77
2021/05/08 11:13:17;;;;;;;6.78;4.80;;;;;;;13.89;46.32;100448.30;1591800;88;21124;-78
2021/05/08 11:16:03;;;;;;;6.10;4.22;;;;;;;13.82;46.67;100446.65;1593439;89;21195;-76
2021/05/08 11:18:37;;;;;;;6.53;5.37;;;;;;;13.69;46.58;100452.59;1592416;88;21227;-78
2021/05/08 11:21:14;;;;;;;8.00;4.70;;;;;;;13.63;47.83;100453.97;1593837;88;21143;-79
2021/05/08 11:23:54;;;;;;;5.90;4.47;;;;;;;13.68;48.23;100444.30;1589298;88;21771;-76
2021/05/08 11:26:29;;;;;;;5.60;4.40;;;;;;;13.71;47.44;100444.88;1591610;88;21186;-77
2021/05/08 11:29:28;;;;;;;7.80;4.95;;;;;;;13.66;47.26;100447.09;1593897;88;21555;-77
2021/05/08 11:31:56;;;;;;;7.50;5.03;;;;;;;13.67;46.91;100439.48;1592796;88;21581;-77
2021/05/08 11:34:27;;;;;;;5.87;4.22;;;;;;;13.61;45.71;100453.25;1592949;88;21691;-76
2021/05/08 11:37:06;;;;;;;4.65;4.25;;;;;;;13.51;46.17;100449.19;1594105;90;21190;-77
2021/05/08 11:39:43;;;;;;;6.25;4.08;;;;;;;13.66;48.40;100449.74;1590688;89;21716;-77